sensor_id;sensor_type;location;lat;lon;timestamp;P1;durP1;ratioP1;P2;durP2;ratioP2
23668;SDS011;12011;47.422;15.018;2023-08-20T00:00:06;6.98;;;6.98;;
23668;SDS011;12011;47.422;15.018;2023-08-20T00:02:39;7.00;;;7.00;;
23668;SDS011;12011;47.422;15.018;2023-08-20T00:05:15;6.92;;;6.92;;
23668;SDS011;12011;47.422;15.018;2023-08-20T00:07:45;6.51;;;6.51;;
23668;SDS011;12011;47.422;15.018;2023-08-20T00:10:14;7.38;;;7.38;;
23668;SDS011;12011;47.422;15.018;2023-08-20T00:12:44;7.12;;;7.12;;
23668;SDS011;12011;47.422;15.018;2023-08-20T00:15:14;7.41;;;7.41;;
23668;SDS011;12011;47.422;15.018;2023-08-20T00:17:45;6.44;;;6.44;;
23668;SDS011;12011;47.422;15.018;2023-08-20T00:20:18;6.88;;;6.88;;
23668;SDS011;12011;47.422;15.018;2023-08-20T00:22:49;6.35;;;6.35;;
23668;SDS011;12011;47.422;15.018;2023-08-20T00:25:19;7.07;;;7.07;;
23668;SDS011;12011;47.422;15.018;2023-08-20T00:27:49;7.44;;;7.44;;
23668;SDS011;12011;47.422;15.018;2023-08-20T00:30:19;7.00;;;7.00;;
23668;SDS011;12011;47.422;15.018;2023-08-20T00:32:51;7.13;;;7.13;;
23668;SDS011;12011;47.422;15.018;2023-08-20T00:35:24;7.87;;;7.87;;
23668;SDS011;12011;47.422;15.018;2023-08-20T00:37:53;7.70;;;7.70;;
23668;SDS011;12011;47.422;15.018;2023-08-20T00:40:23;7.92;;;7.92;;
23668;SDS011;12011;47.422;15.018;2023-08-20T00:42:52;7.86;;;7.86;;
23668;SDS011;12011;47.422;15.018;2023-08-20T00:45:22;6.99;;;6.99;;
23668;SDS011;12011;47.422;15.018;2023-08-20T00:47:52;6.60;;;6.60;;
23668;SDS011;12011;47.422;15.018;2023-08-20T00:50:25;6.35;;;6.35;;
23668;SDS011;12011;47.422;15.018;2023-08-20T00:52:55;6.73;;;6.73;;
23668;SDS011;12011;47.422;15.018;2023-08-20T00:55:25;7.82;;;7.82;;
23668;SDS011;12011;47.422;15.018;2023-08-20T00:57:54;7.38;;;7.38;;
23668;SDS011;12011;47.422;15.018;2023-08-20T01:00:25;6.38;;;6.38;;
23668;SDS011;12011;47.422;15.018;2023-08-20T01:02:54;6.47;;;6.47;;
23668;SDS011;12011;47.422;15.018;2023-08-20T01:05:27;7.36;;;7.36;;
23668;SDS011;12011;47.422;15.018;2023-08-20T01:08:10;7.49;;;7.49;;
23668;SDS011;12011;47.422;15.018;2023-08-20T01:10:56;7.65;;;7.64;;
23668;SDS011;12011;47.422;15.018;2023-08-20T01:13:33;7.24;;;7.24;;
23668;SDS011;12011;47.422;15.018;2023-08-20T01:16:02;7.65;;;7.65;;
23668;SDS011;12011;47.422;15.018;2023-08-20T01:18:32;6.65;;;6.65;;
23668;SDS011;12011;47.422;15.018;2023-08-20T01:21:06;6.45;;;6.45;;
23668;SDS011;12011;47.422;15.018;2023-08-20T01:26:58;6.55;;;6.55;;
23668;SDS011;12011;47.422;15.018;2023-08-20T01:29:48;6.57;;;6.57;;
23668;SDS011;12011;47.422;15.018;2023-08-20T01:32:18;6.53;;;6.53;;
23668;SDS011;12011;47.422;15.018;2023-08-20T01:34:52;7.47;;;7.47;;
23668;SDS011;12011;47.422;15.018;2023-08-20T01:37:21;7.28;;;7.28;;
23668;SDS011;12011;47.422;15.018;2023-08-20T01:39:51;7.38;;;7.38;;
23668;SDS011;12011;47.422;15.018;2023-08-20T01:42:21;8.13;;;8.13;;
23668;SDS011;12011;47.422;15.018;2023-08-20T01:44:54;7.95;;;7.95;;
23668;SDS011;12011;47.422;15.018;2023-08-20T01:47:24;7.80;;;7.80;;
23668;SDS011;12011;47.422;15.018;2023-08-20T01:49:53;6.84;;;6.84;;
23668;SDS011;12011;47.422;15.018;2023-08-20T01:52:24;7.39;;;7.39;;
23668;SDS011;12011;47.422;15.018;2023-08-20T01:54:55;7.71;;;7.71;;
23668;SDS011;12011;47.422;15.018;2023-08-20T01:57:26;7.16;;;7.16;;
23668;SDS011;12011;47.422;15.018;2023-08-20T01:59:58;7.15;;;7.15;;
23668;SDS011;12011;47.422;15.018;2023-08-20T02:02:39;6.97;;;6.97;;
23668;SDS011;12011;47.422;15.018;2023-08-20T02:05:09;7.50;;;7.50;;
23668;SDS011;12011;47.422;15.018;2023-08-20T02:07:39;7.18;;;7.18;;
23668;SDS011;12011;47.422;15.018;2023-08-20T02:10:08;7.11;;;7.11;;
23668;SDS011;12011;47.422;15.018;2023-08-20T02:12:38;6.21;;;6.21;;
23668;SDS011;12011;47.422;15.018;2023-08-20T02:15:12;6.69;;;6.69;;
23668;SDS011;12011;47.422;15.018;2023-08-20T02:17:42;6.61;;;6.61;;
23668;SDS011;12011;47.422;15.018;2023-08-20T02:20:11;6.85;;;6.85;;
23668;SDS011;12011;47.422;15.018;2023-08-20T02:22:41;7.18;;;7.18;;
23668;SDS011;12011;47.422;15.018;2023-08-20T02:25:11;6.57;;;6.57;;
23668;SDS011;12011;47.422;15.018;2023-08-20T02:27:41;7.18;;;7.18;;
23668;SDS011;12011;47.422;15.018;2023-08-20T02:30:14;7.63;;;7.63;;
23668;SDS011;12011;47.422;15.018;2023-08-20T02:32:44;7.26;;;7.26;;
23668;SDS011;12011;47.422;15.018;2023-08-20T02:35:13;8.06;;;8.06;;
23668;SDS011;12011;47.422;15.018;2023-08-20T02:37:43;7.49;;;7.49;;
23668;SDS011;12011;47.422;15.018;2023-08-20T02:40:13;6.33;;;6.33;;
23668;SDS011;12011;47.422;15.018;2023-08-20T02:42:43;7.08;;;7.08;;
23668;SDS011;12011;47.422;15.018;2023-08-20T02:45:15;6.92;;;6.92;;
23668;SDS011;12011;47.422;15.018;2023-08-20T02:47:44;7.20;;;7.20;;
23668;SDS011;12011;47.422;15.018;2023-08-20T02:50:14;7.31;;;7.31;;
23668;SDS011;12011;47.422;15.018;2023-08-20T02:52:44;7.32;;;7.32;;
23668;SDS011;12011;47.422;15.018;2023-08-20T02:55:14;6.89;;;6.89;;
23668;SDS011;12011;47.422;15.018;2023-08-20T02:57:44;6.50;;;6.50;;
23668;SDS011;12011;47.422;15.018;2023-08-20T03:00:16;5.98;;;5.98;;
23668;SDS011;12011;47.422;15.018;2023-08-20T03:02:46;6.32;;;6.32;;
23668;SDS011;12011;47.422;15.018;2023-08-20T03:05:15;6.43;;;6.43;;
23668;SDS011;12011;47.422;15.018;2023-08-20T03:07:45;6.74;;;6.74;;
23668;SDS011;12011;47.422;15.018;2023-08-20T03:10:15;6.74;;;6.74;;
23668;SDS011;12011;47.422;15.018;2023-08-20T03:12:45;7.10;;;7.10;;
23668;SDS011;12011;47.422;15.018;2023-08-20T03:15:17;6.56;;;6.56;;
23668;SDS011;12011;47.422;15.018;2023-08-20T03:17:46;6.86;;;6.86;;
23668;SDS011;12011;47.422;15.018;2023-08-20T03:20:16;7.29;;;7.29;;
23668;SDS011;12011;47.422;15.018;2023-08-20T03:22:45;7.77;;;7.77;;
23668;SDS011;12011;47.422;15.018;2023-08-20T03:25:17;7.28;;;7.28;;
23668;SDS011;12011;47.422;15.018;2023-08-20T03:27:47;7.55;;;7.55;;
23668;SDS011;12011;47.422;15.018;2023-08-20T03:30:20;7.69;;;7.69;;
23668;SDS011;12011;47.422;15.018;2023-08-20T03:32:50;7.69;;;7.69;;
23668;SDS011;12011;47.422;15.018;2023-08-20T03:35:21;7.93;;;7.93;;
23668;SDS011;12011;47.422;15.018;2023-08-20T03:37:50;7.91;;;7.91;;
23668;SDS011;12011;47.422;15.018;2023-08-20T03:40:20;7.27;;;7.27;;
23668;SDS011;12011;47.422;15.018;2023-08-20T03:42:50;7.23;;;7.23;;
23668;SDS011;12011;47.422;15.018;2023-08-20T03:45:22;6.48;;;6.48;;
23668;SDS011;12011;47.422;15.018;2023-08-20T03:47:52;6.49;;;6.49;;
23668;SDS011;12011;47.422;15.018;2023-08-20T03:50:21;6.77;;;6.77;;
23668;SDS011;12011;47.422;15.018;2023-08-20T03:52:51;6.56;;;6.56;;
23668;SDS011;12011;47.422;15.018;2023-08-20T03:55:20;7.04;;;7.04;;
23668;SDS011;12011;47.422;15.018;2023-08-20T03:57:52;6.88;;;6.88;;
23668;SDS011;12011;47.422;15.018;2023-08-20T04:00:24;6.59;;;6.59;;
23668;SDS011;12011;47.422;15.018;2023-08-20T04:02:53;7.35;;;7.35;;
23668;SDS011;12011;47.422;15.018;2023-08-20T04:05:23;7.55;;;7.55;;
23668;SDS011;12011;47.422;15.018;2023-08-20T04:07:53;7.66;;;7.66;;
23668;SDS011;12011;47.422;15.018;2023-08-20T04:10:23;7.86;;;7.86;;
23668;SDS011;12011;47.422;15.018;2023-08-20T04:12:53;7.49;;;7.49;;
23668;SDS011;12011;47.422;15.018;2023-08-20T04:15:25;6.37;;;6.37;;
23668;SDS011;12011;47.422;15.018;2023-08-20T04:17:55;6.02;;;6.02;;
23668;SDS011;12011;47.422;15.018;2023-08-20T04:20:24;7.27;;;7.27;;
23668;SDS011;12011;47.422;15.018;2023-08-20T04:22:54;7.41;;;7.41;;
23668;SDS011;12011;47.422;15.018;2023-08-20T04:25:23;7.85;;;7.85;;
23668;SDS011;12011;47.422;15.018;2023-08-20T04:27:53;6.94;;;6.94;;
23668;SDS011;12011;47.422;15.018;2023-08-20T04:30:25;6.68;;;6.68;;
23668;SDS011;12011;47.422;15.018;2023-08-20T04:32:55;6.03;;;6.03;;
23668;SDS011;12011;47.422;15.018;2023-08-20T04:35:27;6.65;;;6.65;;
23668;SDS011;12011;47.422;15.018;2023-08-20T04:37:57;6.70;;;6.70;;
23668;SDS011;12011;47.422;15.018;2023-08-20T04:40:28;6.57;;;6.57;;
23668;SDS011;12011;47.422;15.018;2023-08-20T04:42:58;7.06;;;7.06;;
23668;SDS011;12011;47.422;15.018;2023-08-20T04:45:31;6.83;;;6.83;;
23668;SDS011;12011;47.422;15.018;2023-08-20T04:48:01;7.28;;;7.28;;
23668;SDS011;12011;47.422;15.018;2023-08-20T04:50:31;6.92;;;6.92;;
23668;SDS011;12011;47.422;15.018;2023-08-20T04:53:01;7.07;;;7.07;;
23668;SDS011;12011;47.422;15.018;2023-08-20T04:55:30;6.92;;;6.92;;
23668;SDS011;12011;47.422;15.018;2023-08-20T04:58:00;6.83;;;6.83;;
23668;SDS011;12011;47.422;15.018;2023-08-20T05:00:35;6.06;;;6.06;;
23668;SDS011;12011;47.422;15.018;2023-08-20T05:03:08;6.71;;;6.71;;
23668;SDS011;12011;47.422;15.018;2023-08-20T05:05:38;7.44;;;7.44;;
23668;SDS011;12011;47.422;15.018;2023-08-20T05:08:08;6.14;;;6.14;;
23668;SDS011;12011;47.422;15.018;2023-08-20T05:10:39;6.86;;;6.86;;
23668;SDS011;12011;47.422;15.018;2023-08-20T05:13:09;6.60;;;6.60;;
23668;SDS011;12011;47.422;15.018;2023-08-20T05:15:41;6.88;;;6.88;;
23668;SDS011;12011;47.422;15.018;2023-08-20T05:18:11;7.07;;;7.07;;
23668;SDS011;12011;47.422;15.018;2023-08-20T05:20:40;6.63;;;6.63;;
23668;SDS011;12011;47.422;15.018;2023-08-20T05:23:10;6.74;;;6.74;;
23668;SDS011;12011;47.422;15.018;2023-08-20T05:25:41;6.35;;;6.35;;
23668;SDS011;12011;47.422;15.018;2023-08-20T05:28:10;6.35;;;6.35;;
23668;SDS011;12011;47.422;15.018;2023-08-20T05:30:43;5.96;;;5.96;;
23668;SDS011;12011;47.422;15.018;2023-08-20T05:33:12;6.33;;;6.33;;
23668;SDS011;12011;47.422;15.018;2023-08-20T05:35:44;6.06;;;6.06;;
23668;SDS011;12011;47.422;15.018;2023-08-20T05:38:14;5.94;;;5.94;;
23668;SDS011;12011;47.422;15.018;2023-08-20T05:40:45;5.63;;;5.63;;
23668;SDS011;12011;47.422;15.018;2023-08-20T05:43:15;5.91;;;5.91;;
23668;SDS011;12011;47.422;15.018;2023-08-20T05:45:48;5.63;;;5.63;;
23668;SDS011;12011;47.422;15.018;2023-08-20T05:48:21;5.62;;;5.62;;
23668;SDS011;12011;47.422;15.018;2023-08-20T05:50:51;5.38;;;5.38;;
23668;SDS011;12011;47.422;15.018;2023-08-20T05:53:21;5.45;;;5.45;;
23668;SDS011;12011;47.422;15.018;2023-08-20T05:55:51;5.58;;;5.58;;
23668;SDS011;12011;47.422;15.018;2023-08-20T05:58:21;5.34;;;5.34;;
23668;SDS011;12011;47.422;15.018;2023-08-20T06:00:54;5.69;;;5.69;;
23668;SDS011;12011;47.422;15.018;2023-08-20T06:03:23;5.51;;;5.51;;
23668;SDS011;12011;47.422;15.018;2023-08-20T06:05:53;6.00;;;6.00;;
23668;SDS011;12011;47.422;15.018;2023-08-20T06:08:23;7.11;;;7.11;;
23668;SDS011;12011;47.422;15.018;2023-08-20T06:10:53;7.01;;;7.01;;
23668;SDS011;12011;47.422;15.018;2023-08-20T06:13:23;6.87;;;6.87;;
23668;SDS011;12011;47.422;15.018;2023-08-20T06:15:55;6.91;;;6.91;;
23668;SDS011;12011;47.422;15.018;2023-08-20T06:18:25;6.42;;;6.42;;
23668;SDS011;12011;47.422;15.018;2023-08-20T06:20:54;6.95;;;6.95;;
23668;SDS011;12011;47.422;15.018;2023-08-20T06:23:24;7.15;;;7.15;;
23668;SDS011;12011;47.422;15.018;2023-08-20T06:25:53;6.72;;;6.72;;
23668;SDS011;12011;47.422;15.018;2023-08-20T06:28:23;6.65;;;6.65;;
23668;SDS011;12011;47.422;15.018;2023-08-20T06:30:55;6.24;;;6.24;;
23668;SDS011;12011;47.422;15.018;2023-08-20T06:33:25;6.37;;;6.37;;
23668;SDS011;12011;47.422;15.018;2023-08-20T06:35:54;5.74;;;5.74;;
23668;SDS011;12011;47.422;15.018;2023-08-20T06:38:24;5.85;;;5.85;;
23668;SDS011;12011;47.422;15.018;2023-08-20T06:40:53;5.51;;;5.51;;
23668;SDS011;12011;47.422;15.018;2023-08-20T06:43:24;5.48;;;5.48;;
23668;SDS011;12011;47.422;15.018;2023-08-20T06:45:56;5.24;;;5.24;;
23668;SDS011;12011;47.422;15.018;2023-08-20T06:48:26;5.50;;;5.50;;
23668;SDS011;12011;47.422;15.018;2023-08-20T06:50:55;5.23;;;5.23;;
23668;SDS011;12011;47.422;15.018;2023-08-20T06:53:25;5.22;;;5.22;;
23668;SDS011;12011;47.422;15.018;2023-08-20T06:55:55;5.43;;;5.43;;
23668;SDS011;12011;47.422;15.018;2023-08-20T06:58:24;5.55;;;5.55;;
23668;SDS011;12011;47.422;15.018;2023-08-20T07:00:54;5.42;;;5.42;;
23668;SDS011;12011;47.422;15.018;2023-08-20T07:03:32;5.82;;;5.82;;
23668;SDS011;12011;47.422;15.018;2023-08-20T07:06:03;5.30;;;5.30;;
23668;SDS011;12011;47.422;15.018;2023-08-20T07:08:34;5.46;;;5.46;;
23668;SDS011;12011;47.422;15.018;2023-08-20T07:11:05;5.20;;;5.20;;
23668;SDS011;12011;47.422;15.018;2023-08-20T07:13:35;5.06;;;5.06;;
23668;SDS011;12011;47.422;15.018;2023-08-20T07:16:08;5.33;;;5.33;;
23668;SDS011;12011;47.422;15.018;2023-08-20T07:18:37;4.98;;;4.98;;
23668;SDS011;12011;47.422;15.018;2023-08-20T07:21:07;5.36;;;5.36;;
23668;SDS011;12011;47.422;15.018;2023-08-20T07:23:36;5.16;;;5.16;;
23668;SDS011;12011;47.422;15.018;2023-08-20T07:26:06;5.28;;;5.28;;
23668;SDS011;12011;47.422;15.018;2023-08-20T07:28:38;4.91;;;4.91;;
23668;SDS011;12011;47.422;15.018;2023-08-20T07:31:27;5.16;;;5.16;;
23668;SDS011;12011;47.422;15.018;2023-08-20T07:33:58;5.09;;;5.09;;
23668;SDS011;12011;47.422;15.018;2023-08-20T07:36:30;4.91;;;4.91;;
23668;SDS011;12011;47.422;15.018;2023-08-20T07:38:59;5.60;;;5.60;;
23668;SDS011;12011;47.422;15.018;2023-08-20T07:41:29;5.14;;;5.14;;
23668;SDS011;12011;47.422;15.018;2023-08-20T07:43:59;4.97;;;4.97;;
23668;SDS011;12011;47.422;15.018;2023-08-20T07:46:31;4.73;;;4.73;;
23668;SDS011;12011;47.422;15.018;2023-08-20T07:49:01;5.37;;;5.37;;
23668;SDS011;12011;47.422;15.018;2023-08-20T07:51:30;5.23;;;5.23;;
23668;SDS011;12011;47.422;15.018;2023-08-20T07:54:00;5.77;;;5.77;;
23668;SDS011;12011;47.422;15.018;2023-08-20T07:56:29;5.17;;;5.17;;
23668;SDS011;12011;47.422;15.018;2023-08-20T07:58:59;5.27;;;5.27;;
23668;SDS011;12011;47.422;15.018;2023-08-20T08:01:31;5.31;;;5.31;;
23668;SDS011;12011;47.422;15.018;2023-08-20T08:04:01;4.85;;;4.85;;
23668;SDS011;12011;47.422;15.018;2023-08-20T08:06:31;5.20;;;5.20;;
23668;SDS011;12011;47.422;15.018;2023-08-20T08:09:14;4.47;;;4.47;;
23668;SDS011;12011;47.422;15.018;2023-08-20T08:11:48;4.70;;;4.70;;
23668;SDS011;12011;47.422;15.018;2023-08-20T08:14:18;4.98;;;4.98;;
23668;SDS011;12011;47.422;15.018;2023-08-20T08:16:50;4.98;;;4.98;;
23668;SDS011;12011;47.422;15.018;2023-08-20T08:19:21;4.80;;;4.80;;
23668;SDS011;12011;47.422;15.018;2023-08-20T08:21:50;4.41;;;4.41;;
23668;SDS011;12011;47.422;15.018;2023-08-20T08:24:20;4.65;;;4.65;;
23668;SDS011;12011;47.422;15.018;2023-08-20T08:26:49;4.69;;;4.69;;
23668;SDS011;12011;47.422;15.018;2023-08-20T08:29:19;4.39;;;4.39;;
23668;SDS011;12011;47.422;15.018;2023-08-20T08:31:51;4.20;;;4.20;;
23668;SDS011;12011;47.422;15.018;2023-08-20T08:34:21;4.44;;;4.44;;
23668;SDS011;12011;47.422;15.018;2023-08-20T08:36:50;4.47;;;4.47;;
23668;SDS011;12011;47.422;15.018;2023-08-20T08:39:20;4.28;;;4.28;;
23668;SDS011;12011;47.422;15.018;2023-08-20T08:41:50;4.36;;;4.36;;
23668;SDS011;12011;47.422;15.018;2023-08-20T08:44:30;4.05;;;4.05;;
23668;SDS011;12011;47.422;15.018;2023-08-20T08:47:03;4.09;;;4.09;;
23668;SDS011;12011;47.422;15.018;2023-08-20T08:49:34;4.27;;;4.27;;
23668;SDS011;12011;47.422;15.018;2023-08-20T08:52:04;4.05;;;4.05;;
23668;SDS011;12011;47.422;15.018;2023-08-20T08:54:34;3.92;;;3.92;;
23668;SDS011;12011;47.422;15.018;2023-08-20T08:57:05;3.91;;;3.91;;
23668;SDS011;12011;47.422;15.018;2023-08-20T08:59:34;4.00;;;4.00;;
23668;SDS011;12011;47.422;15.018;2023-08-20T09:02:10;3.83;;;3.83;;
23668;SDS011;12011;47.422;15.018;2023-08-20T09:04:41;3.73;;;3.73;;
23668;SDS011;12011;47.422;15.018;2023-08-20T09:07:11;3.45;;;3.45;;
23668;SDS011;12011;47.422;15.018;2023-08-20T09:09:42;3.40;;;3.40;;
23668;SDS011;12011;47.422;15.018;2023-08-20T09:12:15;3.25;;;3.25;;
23668;SDS011;12011;47.422;15.018;2023-08-20T09:14:47;3.23;;;3.23;;
23668;SDS011;12011;47.422;15.018;2023-08-20T09:17:20;3.61;;;3.61;;
23668;SDS011;12011;47.422;15.018;2023-08-20T09:19:54;3.17;;;3.17;;
23668;SDS011;12011;47.422;15.018;2023-08-20T09:22:26;3.12;;;3.12;;
23668;SDS011;12011;47.422;15.018;2023-08-20T09:24:56;3.57;;;3.57;;
23668;SDS011;12011;47.422;15.018;2023-08-20T09:27:28;3.16;;;3.16;;
23668;SDS011;12011;47.422;15.018;2023-08-20T09:29:57;2.94;;;2.94;;
23668;SDS011;12011;47.422;15.018;2023-08-20T09:32:30;3.31;;;3.31;;
23668;SDS011;12011;47.422;15.018;2023-08-20T09:34:59;3.29;;;3.29;;
23668;SDS011;12011;47.422;15.018;2023-08-20T09:37:29;2.96;;;2.96;;
23668;SDS011;12011;47.422;15.018;2023-08-20T09:40:01;2.93;;;2.93;;
23668;SDS011;12011;47.422;15.018;2023-08-20T09:42:31;3.10;;;3.10;;
23668;SDS011;12011;47.422;15.018;2023-08-20T09:45:02;2.96;;;2.96;;
23668;SDS011;12011;47.422;15.018;2023-08-20T09:47:37;2.59;;;2.59;;
23668;SDS011;12011;47.422;15.018;2023-08-20T09:50:10;2.66;;;2.66;;
23668;SDS011;12011;47.422;15.018;2023-08-20T09:52:44;2.91;;;2.91;;
23668;SDS011;12011;47.422;15.018;2023-08-20T09:55:28;2.91;;;2.91;;
23668;SDS011;12011;47.422;15.018;2023-08-20T09:58:03;2.60;;;2.60;;
23668;SDS011;12011;47.422;15.018;2023-08-20T10:00:34;2.77;;;2.77;;
23668;SDS011;12011;47.422;15.018;2023-08-20T10:03:07;2.81;;;2.81;;
23668;SDS011;12011;47.422;15.018;2023-08-20T10:05:36;2.78;;;2.78;;
23668;SDS011;12011;47.422;15.018;2023-08-20T10:08:07;2.70;;;2.70;;
23668;SDS011;12011;47.422;15.018;2023-08-20T10:10:38;2.63;;;2.63;;
23668;SDS011;12011;47.422;15.018;2023-08-20T10:13:08;2.64;;;2.64;;
23668;SDS011;12011;47.422;15.018;2023-08-20T10:15:38;2.73;;;2.73;;
23668;SDS011;12011;47.422;15.018;2023-08-20T10:18:11;2.81;;;2.81;;
23668;SDS011;12011;47.422;15.018;2023-08-20T10:20:41;2.56;;;2.56;;
23668;SDS011;12011;47.422;15.018;2023-08-20T10:23:11;2.57;;;2.57;;
23668;SDS011;12011;47.422;15.018;2023-08-20T10:25:42;2.92;;;2.92;;
23668;SDS011;12011;47.422;15.018;2023-08-20T10:28:13;2.82;;;2.82;;
23668;SDS011;12011;47.422;15.018;2023-08-20T10:31:03;2.81;;;2.81;;
23668;SDS011;12011;47.422;15.018;2023-08-20T10:33:38;2.91;;;2.91;;
23668;SDS011;12011;47.422;15.018;2023-08-20T10:36:19;2.80;;;2.80;;
23668;SDS011;12011;47.422;15.018;2023-08-20T10:38:53;3.06;;;3.06;;
23668;SDS011;12011;47.422;15.018;2023-08-20T10:41:24;2.93;;;2.93;;
23668;SDS011;12011;47.422;15.018;2023-08-20T10:43:57;3.45;;;3.45;;
23668;SDS011;12011;47.422;15.018;2023-08-20T10:46:28;3.36;;;3.36;;
23668;SDS011;12011;47.422;15.018;2023-08-20T10:49:04;3.20;;;3.20;;
23668;SDS011;12011;47.422;15.018;2023-08-20T10:51:35;2.95;;;2.95;;
23668;SDS011;12011;47.422;15.018;2023-08-20T10:54:07;3.01;;;3.01;;
23668;SDS011;12011;47.422;15.018;2023-08-20T10:56:39;3.38;;;3.38;;
23668;SDS011;12011;47.422;15.018;2023-08-20T10:59:15;3.11;;;3.11;;
23668;SDS011;12011;47.422;15.018;2023-08-20T11:01:49;3.39;;;3.39;;
23668;SDS011;12011;47.422;15.018;2023-08-20T11:04:23;3.50;;;3.50;;
23668;SDS011;12011;47.422;15.018;2023-08-20T11:06:58;3.46;;;3.46;;
23668;SDS011;12011;47.422;15.018;2023-08-20T11:09:30;3.31;;;3.31;;
23668;SDS011;12011;47.422;15.018;2023-08-20T11:12:01;3.39;;;3.39;;
23668;SDS011;12011;47.422;15.018;2023-08-20T11:14:30;3.46;;;3.46;;
23668;SDS011;12011;47.422;15.018;2023-08-20T11:17:00;3.67;;;3.67;;
23668;SDS011;12011;47.422;15.018;2023-08-20T11:19:33;3.88;;;3.88;;
23668;SDS011;12011;47.422;15.018;2023-08-20T11:22:02;3.75;;;3.75;;
23668;SDS011;12011;47.422;15.018;2023-08-20T11:24:32;4.09;;;4.09;;
23668;SDS011;12011;47.422;15.018;2023-08-20T11:27:04;3.81;;;3.81;;
23668;SDS011;12011;47.422;15.018;2023-08-20T11:29:34;4.04;;;4.04;;
23668;SDS011;12011;47.422;15.018;2023-08-20T11:32:04;4.08;;;4.08;;
23668;SDS011;12011;47.422;15.018;2023-08-20T11:34:36;4.08;;;4.08;;
23668;SDS011;12011;47.422;15.018;2023-08-20T11:37:06;4.09;;;4.09;;
23668;SDS011;12011;47.422;15.018;2023-08-20T11:39:36;4.11;;;4.11;;
23668;SDS011;12011;47.422;15.018;2023-08-20T11:42:05;3.78;;;3.78;;
23668;SDS011;12011;47.422;15.018;2023-08-20T11:44:42;4.09;;;4.09;;
23668;SDS011;12011;47.422;15.018;2023-08-20T11:47:14;4.33;;;4.33;;
23668;SDS011;12011;47.422;15.018;2023-08-20T11:49:47;4.53;;;4.53;;
23668;SDS011;12011;47.422;15.018;2023-08-20T11:52:31;4.05;;;4.05;;
23668;SDS011;12011;47.422;15.018;2023-08-20T11:55:01;4.09;;;4.09;;
23668;SDS011;12011;47.422;15.018;2023-08-20T11:57:32;4.20;;;4.20;;
23668;SDS011;12011;47.422;15.018;2023-08-20T12:00:03;4.29;;;4.29;;
23668;SDS011;12011;47.422;15.018;2023-08-20T12:02:41;4.76;;;4.76;;
23668;SDS011;12011;47.422;15.018;2023-08-20T12:05:14;4.58;;;4.58;;
23668;SDS011;12011;47.422;15.018;2023-08-20T12:07:54;4.72;;;4.72;;
23668;SDS011;12011;47.422;15.018;2023-08-20T12:10:26;4.37;;;4.37;;
23668;SDS011;12011;47.422;15.018;2023-08-20T12:12:58;4.36;;;4.36;;
23668;SDS011;12011;47.422;15.018;2023-08-20T12:15:28;4.48;;;4.48;;
23668;SDS011;12011;47.422;15.018;2023-08-20T12:17:58;4.36;;;4.36;;
23668;SDS011;12011;47.422;15.018;2023-08-20T12:20:32;4.16;;;4.16;;
23668;SDS011;12011;47.422;15.018;2023-08-20T12:23:04;4.43;;;4.43;;
23668;SDS011;12011;47.422;15.018;2023-08-20T12:25:35;4.25;;;4.25;;
23668;SDS011;12011;47.422;15.018;2023-08-20T12:28:05;4.16;;;4.16;;
23668;SDS011;12011;47.422;15.018;2023-08-20T12:30:35;4.19;;;4.19;;
23668;SDS011;12011;47.422;15.018;2023-08-20T12:33:05;4.08;;;4.08;;
23668;SDS011;12011;47.422;15.018;2023-08-20T12:35:37;4.65;;;4.65;;
23668;SDS011;12011;47.422;15.018;2023-08-20T12:38:07;4.22;;;4.22;;
23668;SDS011;12011;47.422;15.018;2023-08-20T12:40:36;4.27;;;4.27;;
23668;SDS011;12011;47.422;15.018;2023-08-20T12:43:06;4.27;;;4.27;;
23668;SDS011;12011;47.422;15.018;2023-08-20T12:45:35;4.15;;;4.15;;
23668;SDS011;12011;47.422;15.018;2023-08-20T12:48:05;3.93;;;3.93;;
23668;SDS011;12011;47.422;15.018;2023-08-20T12:50:38;4.23;;;4.23;;
23668;SDS011;12011;47.422;15.018;2023-08-20T12:53:07;4.36;;;4.36;;
23668;SDS011;12011;47.422;15.018;2023-08-20T12:55:38;4.20;;;4.20;;
23668;SDS011;12011;47.422;15.018;2023-08-20T12:58:08;4.41;;;4.41;;
23668;SDS011;12011;47.422;15.018;2023-08-20T13:00:37;3.87;;;3.87;;
23668;SDS011;12011;47.422;15.018;2023-08-20T13:03:07;4.19;;;4.19;;
23668;SDS011;12011;47.422;15.018;2023-08-20T13:05:41;4.13;;;4.13;;
23668;SDS011;12011;47.422;15.018;2023-08-20T13:08:12;4.41;;;4.41;;
23668;SDS011;12011;47.422;15.018;2023-08-20T13:10:42;4.19;;;4.19;;
23668;SDS011;12011;47.422;15.018;2023-08-20T13:13:23;4.11;;;4.11;;
23668;SDS011;12011;47.422;15.018;2023-08-20T13:15:54;4.32;;;4.32;;
23668;SDS011;12011;47.422;15.018;2023-08-20T13:18:25;4.37;;;4.37;;
23668;SDS011;12011;47.422;15.018;2023-08-20T13:20:58;4.45;;;4.45;;
23668;SDS011;12011;47.422;15.018;2023-08-20T13:23:30;4.01;;;4.01;;
23668;SDS011;12011;47.422;15.018;2023-08-20T13:26:00;4.31;;;4.31;;
23668;SDS011;12011;47.422;15.018;2023-08-20T13:28:29;4.33;;;4.33;;
23668;SDS011;12011;47.422;15.018;2023-08-20T13:31:00;4.57;;;4.57;;
23668;SDS011;12011;47.422;15.018;2023-08-20T13:33:29;4.16;;;4.16;;
23668;SDS011;12011;47.422;15.018;2023-08-20T13:36:02;4.07;;;4.07;;
23668;SDS011;12011;47.422;15.018;2023-08-20T13:38:32;4.18;;;4.18;;
23668;SDS011;12011;47.422;15.018;2023-08-20T13:41:02;4.08;;;4.08;;
23668;SDS011;12011;47.422;15.018;2023-08-20T13:43:32;4.35;;;4.35;;
23668;SDS011;12011;47.422;15.018;2023-08-20T13:46:02;4.36;;;4.36;;
23668;SDS011;12011;47.422;15.018;2023-08-20T13:48:31;4.34;;;4.34;;
23668;SDS011;12011;47.422;15.018;2023-08-20T13:51:04;4.08;;;4.08;;
23668;SDS011;12011;47.422;15.018;2023-08-20T13:53:33;4.13;;;4.13;;
23668;SDS011;12011;47.422;15.018;2023-08-20T13:56:03;4.18;;;4.18;;
23668;SDS011;12011;47.422;15.018;2023-08-20T13:58:33;4.22;;;4.22;;
23668;SDS011;12011;47.422;15.018;2023-08-20T14:01:02;4.13;;;4.13;;
23668;SDS011;12011;47.422;15.018;2023-08-20T14:03:32;3.96;;;3.96;;
23668;SDS011;12011;47.422;15.018;2023-08-20T14:06:04;4.15;;;4.15;;
23668;SDS011;12011;47.422;15.018;2023-08-20T14:08:34;4.55;;;4.55;;
23668;SDS011;12011;47.422;15.018;2023-08-20T14:11:03;4.16;;;4.16;;
23668;SDS011;12011;47.422;15.018;2023-08-20T14:13:33;4.06;;;4.06;;
23668;SDS011;12011;47.422;15.018;2023-08-20T14:16:03;4.26;;;4.26;;
23668;SDS011;12011;47.422;15.018;2023-08-20T14:18:32;4.28;;;4.28;;
23668;SDS011;12011;47.422;15.018;2023-08-20T14:21:04;3.99;;;3.99;;
23668;SDS011;12011;47.422;15.018;2023-08-20T14:23:34;4.27;;;4.27;;
23668;SDS011;12011;47.422;15.018;2023-08-20T14:26:05;4.49;;;4.49;;
23668;SDS011;12011;47.422;15.018;2023-08-20T14:28:35;4.17;;;4.17;;
23668;SDS011;12011;47.422;15.018;2023-08-20T14:31:05;4.52;;;4.52;;
23668;SDS011;12011;47.422;15.018;2023-08-20T14:33:34;4.46;;;4.46;;
23668;SDS011;12011;47.422;15.018;2023-08-20T14:36:07;4.65;;;4.65;;
23668;SDS011;12011;47.422;15.018;2023-08-20T14:38:37;4.79;;;4.79;;
23668;SDS011;12011;47.422;15.018;2023-08-20T14:41:07;4.51;;;4.51;;
23668;SDS011;12011;47.422;15.018;2023-08-20T14:43:36;4.46;;;4.46;;
23668;SDS011;12011;47.422;15.018;2023-08-20T14:46:08;4.44;;;4.44;;
23668;SDS011;12011;47.422;15.018;2023-08-20T14:48:38;4.73;;;4.73;;
23668;SDS011;12011;47.422;15.018;2023-08-20T14:51:11;4.70;;;4.70;;
23668;SDS011;12011;47.422;15.018;2023-08-20T14:53:41;4.84;;;4.84;;
23668;SDS011;12011;47.422;15.018;2023-08-20T14:56:10;4.47;;;4.47;;
23668;SDS011;12011;47.422;15.018;2023-08-20T14:58:40;4.90;;;4.90;;